sensor_id;sensor_type;location;lat;lon;timestamp;pressure;altitude;pressure_sealevel;temperature;humidity
40946;BME280;55635;50.264;11.918;2022-12-07T00:02:20;95411.53;;;4.04;85.80
40946;BME280;55635;50.264;11.918;2022-12-07T00:05:01;95434.09;;;3.97;85.81
40946;BME280;55635;50.264;11.918;2022-12-07T00:07:42;95425.13;;;3.99;85.72
40946;BME280;55635;50.264;11.918;2022-12-07T00:10:22;95424.88;;;3.93;85.66
40946;BME280;55635;50.264;11.918;2022-12-07T00:13:03;95426.31;;;4.05;85.68
40946;BME280;55635;50.264;11.918;2022-12-07T00:15:45;95413.66;;;4.00;85.48
40946;BME280;55635;50.264;11.918;2022-12-07T00:18:26;95426.97;;;4.07;85.53
40946;BME280;55635;50.264;11.918;2022-12-07T00:21:17;95412.81;;;4.00;85.47
40946;BME280;55635;50.264;11.918;2022-12-07T00:23:59;95399.72;;;4.00;85.31
40946;BME280;55635;50.264;11.918;2022-12-07T00:26:42;95407.59;;;4.00;85.26
40946;BME280;55635;50.264;11.918;2022-12-07T00:29:23;95419.09;;;4.07;84.94
40946;BME280;55635;50.264;11.918;2022-12-07T00:32:04;95401.03;;;4.04;84.91
40946;BME280;55635;50.264;11.918;2022-12-07T00:34:45;95407.63;;;4.08;84.37
40946;BME280;55635;50.264;11.918;2022-12-07T00:37:26;95398.34;;;3.96;84.62
40946;BME280;55635;50.264;11.918;2022-12-07T00:40:08;95397.81;;;4.10;84.28
40946;BME280;55635;50.264;11.918;2022-12-07T00:42:49;95397.16;;;4.08;84.10
40946;BME280;55635;50.264;11.918;2022-12-07T00:45:29;95403.75;;;4.12;83.74
40946;BME280;55635;50.264;11.918;2022-12-07T00:48:10;95391.16;;;3.98;83.64
40946;BME280;55635;50.264;11.918;2022-12-07T00:50:51;95389.00;;;3.93;83.80
40946;BME280;55635;50.264;11.918;2022-12-07T00:53:37;95392.06;;;3.89;83.13
40946;BME280;55635;50.264;11.918;2022-12-07T00:56:25;95386.59;;;3.82;83.17
40946;BME280;55635;50.264;11.918;2022-12-07T00:59:06;95394.38;;;3.74;83.55
40946;BME280;55635;50.264;11.918;2022-12-07T01:01:47;95397.00;;;3.74;83.21
40946;BME280;55635;50.264;11.918;2022-12-07T01:04:28;95392.28;;;3.60;83.04
40946;BME280;55635;50.264;11.918;2022-12-07T01:07:10;95406.00;;;3.71;83.09
40946;BME280;55635;50.264;11.918;2022-12-07T01:09:51;95409.81;;;3.77;82.66
40946;BME280;55635;50.264;11.918;2022-12-07T01:12:32;95405.16;;;3.71;82.24
40946;BME280;55635;50.264;11.918;2022-12-07T01:15:13;95392.88;;;3.54;82.53
40946;BME280;55635;50.264;11.918;2022-12-07T01:17:54;95401.22;;;3.67;82.66
40946;BME280;55635;50.264;11.918;2022-12-07T01:20:36;95396.09;;;3.65;82.52
40946;BME280;55635;50.264;11.918;2022-12-07T01:23:17;95391.16;;;3.62;82.24
40946;BME280;55635;50.264;11.918;2022-12-07T01:26:00;95393.53;;;3.73;81.43
40946;BME280;55635;50.264;11.918;2022-12-07T01:28:41;95387.03;;;3.60;82.32
40946;BME280;55635;50.264;11.918;2022-12-07T01:31:25;95388.00;;;3.76;81.75
40946;BME280;55635;50.264;11.918;2022-12-07T01:34:06;95394.38;;;3.74;82.32
40946;BME280;55635;50.264;11.918;2022-12-07T01:36:47;95386.16;;;3.87;81.61
40946;BME280;55635;50.264;11.918;2022-12-07T01:39:28;95382.69;;;3.86;80.90
40946;BME280;55635;50.264;11.918;2022-12-07T01:42:10;95365.81;;;3.89;80.80
40946;BME280;55635;50.264;11.918;2022-12-07T01:48:16;95371.78;;;3.91;80.33
40946;BME280;55635;50.264;11.918;2022-12-07T01:51:04;95361.72;;;3.68;80.35
40946;BME280;55635;50.264;11.918;2022-12-07T01:53:46;95365.00;;;3.53;80.52
40946;BME280;55635;50.264;11.918;2022-12-07T01:56:28;95365.97;;;3.52;80.71
40946;BME280;55635;50.264;11.918;2022-12-07T01:59:09;95364.78;;;3.46;80.93
40946;BME280;55635;50.264;11.918;2022-12-07T02:01:51;95357.75;;;3.47;80.89
40946;BME280;55635;50.264;11.918;2022-12-07T02:04:33;95357.13;;;3.35;81.98
40946;BME280;55635;50.264;11.918;2022-12-07T02:07:16;95357.94;;;3.18;83.14
40946;BME280;55635;50.264;11.918;2022-12-07T02:10:11;95345.13;;;3.15;83.15
40946;BME280;55635;50.264;11.918;2022-12-07T02:24:47;95349.38;;;3.16;81.85
40946;BME280;55635;50.264;11.918;2022-12-07T02:27:46;95351.75;;;3.09;82.19
40946;BME280;55635;50.264;11.918;2022-12-07T02:30:31;95347.66;;;3.07;82.11
40946;BME280;55635;50.264;11.918;2022-12-07T02:33:30;95344.94;;;2.99;82.00
40946;BME280;55635;50.264;11.918;2022-12-07T02:36:32;95354.84;;;3.05;82.35
40946;BME280;55635;50.264;11.918;2022-12-07T02:40:03;95347.56;;;2.99;82.50
40946;BME280;55635;50.264;11.918;2022-12-07T02:42:33;95356.38;;;2.98;83.60
40946;BME280;55635;50.264;11.918;2022-12-07T02:45:21;95367.22;;;3.03;83.92
40946;BME280;55635;50.264;11.918;2022-12-07T02:48:04;95354.66;;;3.06;84.02
40946;BME280;55635;50.264;11.918;2022-12-07T02:50:53;95353.66;;;3.17;84.17
40946;BME280;55635;50.264;11.918;2022-12-07T02:53:44;95354.53;;;3.08;84.84
40946;BME280;55635;50.264;11.918;2022-12-07T03:03:06;95352.47;;;3.11;85.15
40946;BME280;55635;50.264;11.918;2022-12-07T03:06:06;95337.63;;;3.02;85.32
40946;BME280;55635;50.264;11.918;2022-12-07T03:09:12;95337.66;;;3.20;84.59
40946;BME280;55635;50.264;11.918;2022-12-07T03:12:22;95345.97;;;3.06;84.60
40946;BME280;55635;50.264;11.918;2022-12-07T03:15:20;95343.31;;;3.15;84.10
40946;BME280;55635;50.264;11.918;2022-12-07T03:18:05;95344.41;;;2.95;84.69
40946;BME280;55635;50.264;11.918;2022-12-07T03:20:52;95340.97;;;2.95;84.38
40946;BME280;55635;50.264;11.918;2022-12-07T03:23:35;95343.03;;;2.91;84.75
40946;BME280;55635;50.264;11.918;2022-12-07T03:26:19;95337.75;;;3.01;84.49
40946;BME280;55635;50.264;11.918;2022-12-07T03:29:20;95334.66;;;2.88;84.49
40946;BME280;55635;50.264;11.918;2022-12-07T03:32:09;95325.16;;;2.87;84.23
40946;BME280;55635;50.264;11.918;2022-12-07T03:38:02;95320.22;;;2.84;83.81
40946;BME280;55635;50.264;11.918;2022-12-07T03:41:00;95328.06;;;2.84;83.81
40946;BME280;55635;50.264;11.918;2022-12-07T03:43:42;95324.34;;;2.86;83.57
40946;BME280;55635;50.264;11.918;2022-12-07T03:52:47;95334.06;;;2.94;83.90
40946;BME280;55635;50.264;11.918;2022-12-07T03:55:35;95331.31;;;2.95;83.42
40946;BME280;55635;50.264;11.918;2022-12-07T03:58:19;95326.66;;;2.89;83.70
40946;BME280;55635;50.264;11.918;2022-12-07T04:01:02;95306.53;;;2.90;83.87
40946;BME280;55635;50.264;11.918;2022-12-07T04:03:43;95319.13;;;3.04;83.90
40946;BME280;55635;50.264;11.918;2022-12-07T04:06:24;95318.50;;;2.92;84.25
40946;BME280;55635;50.264;11.918;2022-12-07T04:09:05;95316.28;;;2.97;84.02
40946;BME280;55635;50.264;11.918;2022-12-07T04:11:46;95308.06;;;3.10;83.91
40946;BME280;55635;50.264;11.918;2022-12-07T04:14:27;95305.66;;;2.99;84.29
40946;BME280;55635;50.264;11.918;2022-12-07T04:17:08;95293.09;;;3.02;84.30
40946;BME280;55635;50.264;11.918;2022-12-07T04:19:49;95298.56;;;3.09;85.15
40946;BME280;55635;50.264;11.918;2022-12-07T04:22:30;95299.44;;;3.00;85.13
40946;BME280;55635;50.264;11.918;2022-12-07T04:25:11;95298.84;;;3.06;85.26
40946;BME280;55635;50.264;11.918;2022-12-07T04:27:52;95300.44;;;3.16;85.07
40946;BME280;55635;50.264;11.918;2022-12-07T04:30:34;95295.16;;;3.26;84.73
40946;BME280;55635;50.264;11.918;2022-12-07T04:33:15;95294.19;;;3.00;85.49
40946;BME280;55635;50.264;11.918;2022-12-07T04:35:56;95297.06;;;3.06;86.17
40946;BME280;55635;50.264;11.918;2022-12-07T04:38:37;95284.25;;;2.86;87.04
40946;BME280;55635;50.264;11.918;2022-12-07T04:41:18;95281.88;;;2.92;86.66
40946;BME280;55635;50.264;11.918;2022-12-07T04:44:04;95285.13;;;2.77;86.79
40946;BME280;55635;50.264;11.918;2022-12-07T04:46:48;95283.94;;;2.89;87.33
40946;BME280;55635;50.264;11.918;2022-12-07T04:49:29;95279.91;;;2.94;87.01
40946;BME280;55635;50.264;11.918;2022-12-07T04:52:09;95282.16;;;2.89;87.51
40946;BME280;55635;50.264;11.918;2022-12-07T04:54:50;95284.16;;;2.78;87.81
40946;BME280;55635;50.264;11.918;2022-12-07T04:57:31;95285.69;;;2.98;87.53
40946;BME280;55635;50.264;11.918;2022-12-07T05:00:12;95272.22;;;2.93;87.84
40946;BME280;55635;50.264;11.918;2022-12-07T05:02:53;95270.63;;;3.00;87.45
40946;BME280;55635;50.264;11.918;2022-12-07T05:05:34;95268.41;;;2.87;87.55
40946;BME280;55635;50.264;11.918;2022-12-07T05:08:15;95274.13;;;2.91;87.54
40946;BME280;55635;50.264;11.918;2022-12-07T05:10:56;95267.88;;;2.84;87.99
40946;BME280;55635;50.264;11.918;2022-12-07T05:13:37;95277.34;;;2.85;87.78
40946;BME280;55635;50.264;11.918;2022-12-07T05:16:18;95248.78;;;2.73;88.07
40946;BME280;55635;50.264;11.918;2022-12-07T05:18:59;95264.56;;;2.82;88.31
40946;BME280;55635;50.264;11.918;2022-12-07T05:21:40;95272.50;;;2.90;87.83
40946;BME280;55635;50.264;11.918;2022-12-07T05:24:24;95278.41;;;2.92;87.95
40946;BME280;55635;50.264;11.918;2022-12-07T05:27:09;95276.16;;;2.97;88.21
40946;BME280;55635;50.264;11.918;2022-12-07T05:29:53;95281.19;;;2.90;88.24
40946;BME280;55635;50.264;11.918;2022-12-07T05:32:47;95278.19;;;3.03;87.89
40946;BME280;55635;50.264;11.918;2022-12-07T05:35:33;95273.03;;;2.93;88.60
40946;BME280;55635;50.264;11.918;2022-12-07T05:38:15;95267.81;;;2.93;88.76
40946;BME280;55635;50.264;11.918;2022-12-07T05:41:03;95274.09;;;3.00;88.45
40946;BME280;55635;50.264;11.918;2022-12-07T05:43:48;95279.84;;;3.04;87.97
40946;BME280;55635;50.264;11.918;2022-12-07T05:46:38;95280.44;;;2.98;88.29
40946;BME280;55635;50.264;11.918;2022-12-07T05:49:25;95273.47;;;2.89;88.62
40946;BME280;55635;50.264;11.918;2022-12-07T05:52:12;95275.50;;;2.95;89.04
40946;BME280;55635;50.264;11.918;2022-12-07T05:55:00;95280.97;;;3.01;88.72
40946;BME280;55635;50.264;11.918;2022-12-07T05:57:41;95269.72;;;2.91;88.57
40946;BME280;55635;50.264;11.918;2022-12-07T06:00:48;95275.22;;;2.98;88.93
40946;BME280;55635;50.264;11.918;2022-12-07T06:03:32;95278.38;;;3.01;88.79
40946;BME280;55635;50.264;11.918;2022-12-07T06:06:15;95268.25;;;3.06;88.27
40946;BME280;55635;50.264;11.918;2022-12-07T06:09:00;95275.75;;;3.01;88.47
40946;BME280;55635;50.264;11.918;2022-12-07T06:11:44;95283.72;;;3.00;88.99
40946;BME280;55635;50.264;11.918;2022-12-07T06:14:45;95276.03;;;2.98;88.92
40946;BME280;55635;50.264;11.918;2022-12-07T06:17:27;95281.59;;;3.13;88.91
40946;BME280;55635;50.264;11.918;2022-12-07T06:20:08;95280.31;;;3.17;89.19
40946;BME280;55635;50.264;11.918;2022-12-07T06:23:02;95280.31;;;3.17;88.88
40946;BME280;55635;50.264;11.918;2022-12-07T06:25:46;95272.00;;;3.04;89.40
40946;BME280;55635;50.264;11.918;2022-12-07T06:28:27;95277.78;;;3.25;89.01
40946;BME280;55635;50.264;11.918;2022-12-07T06:31:08;95258.13;;;2.94;89.66
40946;BME280;55635;50.264;11.918;2022-12-07T06:33:56;95283.00;;;3.07;89.68
40946;BME280;55635;50.264;11.918;2022-12-07T06:36:38;95277.16;;;2.96;90.18
40946;BME280;55635;50.264;11.918;2022-12-07T06:39:23;95280.75;;;3.12;89.87
40946;BME280;55635;50.264;11.918;2022-12-07T06:42:05;95285.19;;;3.12;90.01
40946;BME280;55635;50.264;11.918;2022-12-07T06:44:50;95277.91;;;3.06;89.98
40946;BME280;55635;50.264;11.918;2022-12-07T06:47:31;95293.06;;;3.12;90.32
40946;BME280;55635;50.264;11.918;2022-12-07T06:50:12;95290.97;;;3.33;89.30
40946;BME280;55635;50.264;11.918;2022-12-07T06:52:53;95296.28;;;3.23;89.39
40946;BME280;55635;50.264;11.918;2022-12-07T06:55:35;95295.59;;;3.21;89.65
40946;BME280;55635;50.264;11.918;2022-12-07T06:58:17;95287.06;;;3.19;89.66
40946;BME280;55635;50.264;11.918;2022-12-07T07:00:58;95297.78;;;3.26;89.54
40946;BME280;55635;50.264;11.918;2022-12-07T07:03:40;95303.25;;;3.33;89.54
40946;BME280;55635;50.264;11.918;2022-12-07T07:06:21;95295.38;;;3.33;89.60
40946;BME280;55635;50.264;11.918;2022-12-07T07:09:06;95297.41;;;3.21;89.95
40946;BME280;55635;50.264;11.918;2022-12-07T07:11:47;95285.91;;;3.04;90.67
40946;BME280;55635;50.264;11.918;2022-12-07T07:14:40;95303.09;;;3.34;90.33
40946;BME280;55635;50.264;11.918;2022-12-07T07:17:38;95312.97;;;3.40;90.27
40946;BME280;55635;50.264;11.918;2022-12-07T07:20:20;95307.19;;;3.19;90.87
40946;BME280;55635;50.264;11.918;2022-12-07T07:23:08;95301.03;;;3.10;91.18
40946;BME280;55635;50.264;11.918;2022-12-07T07:26:02;95306.06;;;3.21;92.07
40946;BME280;55635;50.264;11.918;2022-12-07T07:28:48;95303.72;;;3.18;92.22
40946;BME280;55635;50.264;11.918;2022-12-07T07:31:30;95302.63;;;3.21;91.97
40946;BME280;55635;50.264;11.918;2022-12-07T07:34:17;95300.16;;;3.19;92.05
40946;BME280;55635;50.264;11.918;2022-12-07T07:37:04;95307.94;;;3.29;92.07
40946;BME280;55635;50.264;11.918;2022-12-07T07:39:49;95309.31;;;3.33;91.55
40946;BME280;55635;50.264;11.918;2022-12-07T07:42:38;95305.88;;;3.33;91.77
40946;BME280;55635;50.264;11.918;2022-12-07T07:45:28;95304.97;;;3.24;92.24
40946;BME280;55635;50.264;11.918;2022-12-07T07:48:09;95316.63;;;3.29;92.09
40946;BME280;55635;50.264;11.918;2022-12-07T07:50:57;95312.66;;;3.43;91.51
40946;BME280;55635;50.264;11.918;2022-12-07T07:53:44;95314.63;;;3.41;91.47
40946;BME280;55635;50.264;11.918;2022-12-07T07:56:32;95312.28;;;3.20;91.99
40946;BME280;55635;50.264;11.918;2022-12-07T07:59:14;95319.56;;;3.44;91.65
40946;BME280;55635;50.264;11.918;2022-12-07T08:02:14;95324.44;;;3.57;91.21
40946;BME280;55635;50.264;11.918;2022-12-07T08:05:01;95316.13;;;3.44;91.37
40946;BME280;55635;50.264;11.918;2022-12-07T08:07:43;95319.50;;;3.36;92.07
40946;BME280;55635;50.264;11.918;2022-12-07T08:10:34;95330.34;;;3.41;91.71
40946;BME280;55635;50.264;11.918;2022-12-07T08:13:24;95327.50;;;3.52;91.28
40946;BME280;55635;50.264;11.918;2022-12-07T08:16:11;95323.91;;;3.36;91.44
40946;BME280;55635;50.264;11.918;2022-12-07T08:18:56;95325.22;;;3.40;91.43
40946;BME280;55635;50.264;11.918;2022-12-07T08:21:37;95330.50;;;3.57;90.98
40946;BME280;55635;50.264;11.918;2022-12-07T08:24:18;95323.97;;;3.44;91.13
40946;BME280;55635;50.264;11.918;2022-12-07T08:26:59;95331.16;;;3.42;91.89
40946;BME280;55635;50.264;11.918;2022-12-07T08:29:40;95339.16;;;3.40;91.72
40946;BME280;55635;50.264;11.918;2022-12-07T08:32:21;95335.94;;;3.28;91.96
40946;BME280;55635;50.264;11.918;2022-12-07T08:35:01;95339.69;;;3.44;92.12
40946;BME280;55635;50.264;11.918;2022-12-07T08:37:43;95339.94;;;3.50;91.45
40946;BME280;55635;50.264;11.918;2022-12-07T08:40:24;95334.75;;;3.58;91.19
40946;BME280;55635;50.264;11.918;2022-12-07T08:43:05;95334.25;;;3.72;90.95
40946;BME280;55635;50.264;11.918;2022-12-07T08:46:13;95350.94;;;3.71;91.05
40946;BME280;55635;50.264;11.918;2022-12-07T08:49:19;95333.50;;;3.62;91.53
40946;BME280;55635;50.264;11.918;2022-12-07T08:52:04;95338.50;;;3.73;90.78
40946;BME280;55635;50.264;11.918;2022-12-07T08:54:46;95341.88;;;3.83;90.48
40946;BME280;55635;50.264;11.918;2022-12-07T08:57:28;95334.44;;;3.61;90.53
40946;BME280;55635;50.264;11.918;2022-12-07T09:00:10;95344.88;;;3.71;90.91
40946;BME280;55635;50.264;11.918;2022-12-07T09:02:51;95350.41;;;3.68;90.72
40946;BME280;55635;50.264;11.918;2022-12-07T09:05:33;95353.50;;;3.81;90.74
40946;BME280;55635;50.264;11.918;2022-12-07T09:08:14;95354.22;;;3.73;90.69
40946;BME280;55635;50.264;11.918;2022-12-07T09:10:56;95341.78;;;3.58;90.92
40946;BME280;55635;50.264;11.918;2022-12-07T09:13:36;95351.31;;;3.76;90.81
40946;BME280;55635;50.264;11.918;2022-12-07T09:16:17;95350.00;;;4.16;89.48
40946;BME280;55635;50.264;11.918;2022-12-07T09:18:58;95356.66;;;4.10;88.62
40946;BME280;55635;50.264;11.918;2022-12-07T09:21:42;95350.59;;;4.27;87.88
40946;BME280;55635;50.264;11.918;2022-12-07T09:24:23;95360.22;;;4.19;88.15
40946;BME280;55635;50.264;11.918;2022-12-07T09:27:05;95352.06;;;4.30;87.90
40946;BME280;55635;50.264;11.918;2022-12-07T09:29:46;95352.84;;;4.48;87.15
40946;BME280;55635;50.264;11.918;2022-12-07T09:32:27;95349.34;;;4.65;86.45
40946;BME280;55635;50.264;11.918;2022-12-07T09:35:08;95350.34;;;4.64;85.84
40946;BME280;55635;50.264;11.918;2022-12-07T09:37:50;95341.88;;;4.53;85.81
40946;BME280;55635;50.264;11.918;2022-12-07T09:40:33;95353.28;;;4.61;85.85
40946;BME280;55635;50.264;11.918;2022-12-07T09:43:20;95335.28;;;4.74;85.86
40946;BME280;55635;50.264;11.918;2022-12-07T09:46:03;95341.41;;;4.83;85.48
40946;BME280;55635;50.264;11.918;2022-12-07T09:48:48;95335.22;;;4.92;84.85
40946;BME280;55635;50.264;11.918;2022-12-07T09:51:31;95335.66;;;4.87;84.77
40946;BME280;55635;50.264;11.918;2022-12-07T09:54:16;95329.59;;;4.87;84.68
40946;BME280;55635;50.264;11.918;2022-12-07T09:56:58;95330.91;;;4.83;85.11
40946;BME280;55635;50.264;11.918;2022-12-07T09:59:39;95333.03;;;4.87;85.00
40946;BME280;55635;50.264;11.918;2022-12-07T10:02:43;95331.25;;;4.96;85.07
40946;BME280;55635;50.264;11.918;2022-12-07T10:05:44;95330.31;;;5.05;85.24
40946;BME280;55635;50.264;11.918;2022-12-07T10:08:26;95321.81;;;5.11;85.16
40946;BME280;55635;50.264;11.918;2022-12-07T10:11:07;95319.69;;;5.15;84.38
40946;BME280;55635;50.264;11.918;2022-12-07T10:13:52;95316.72;;;5.18;84.09
40946;BME280;55635;50.264;11.918;2022-12-07T10:16:40;95318.41;;;5.27;84.39
40946;BME280;55635;50.264;11.918;2022-12-07T10:19:32;95326.97;;;5.29;84.21
40946;BME280;55635;50.264;11.918;2022-12-07T10:22:17;95318.78;;;5.40;84.29
40946;BME280;55635;50.264;11.918;2022-12-07T10:25:09;95309.25;;;4.89;85.35
40946;BME280;55635;50.264;11.918;2022-12-07T10:28:12;95314.84;;;4.34;87.58
40946;BME280;55635;50.264;11.918;2022-12-07T10:31:15;95310.09;;;4.30;88.97
40946;BME280;55635;50.264;11.918;2022-12-07T10:34:01;95315.56;;;4.36;88.65
40946;BME280;55635;50.264;11.918;2022-12-07T10:36:42;95310.31;;;4.70;88.24
40946;BME280;55635;50.264;11.918;2022-12-07T10:39:23;95313.16;;;4.25;88.61
40946;BME280;55635;50.264;11.918;2022-12-07T10:42:04;95298.06;;;4.53;87.78
40946;BME280;55635;50.264;11.918;2022-12-07T10:44:48;95307.50;;;5.14;87.86
40946;BME280;55635;50.264;11.918;2022-12-07T10:47:38;95309.22;;;5.39;84.04
40946;BME280;55635;50.264;11.918;2022-12-07T10:53:59;95291.06;;;5.78;81.29
40946;BME280;55635;50.264;11.918;2022-12-07T11:00:06;95286.56;;;7.06;79.83
40946;BME280;55635;50.264;11.918;2022-12-07T11:03:22;95287.66;;;7.11;76.74
40946;BME280;55635;50.264;11.918;2022-12-07T11:12:56;95273.94;;;8.82;71.63
40946;BME280;55635;50.264;11.918;2022-12-07T11:22:06;95264.75;;;10.06;68.27
40946;BME280;55635;50.264;11.918;2022-12-07T11:25:17;95270.59;;;10.16;67.70
40946;BME280;55635;50.264;11.918;2022-12-07T11:38:17;95261.94;;;8.27;69.70
40946;BME280;55635;50.264;11.918;2022-12-07T11:41:05;95262.03;;;7.96;70.60
40946;BME280;55635;50.264;11.918;2022-12-07T11:44:22;95268.38;;;7.42;72.28
40946;BME280;55635;50.264;11.918;2022-12-07T11:48:02;95253.38;;;7.42;73.45
40946;BME280;55635;50.264;11.918;2022-12-07T11:50:59;95260.69;;;7.32;74.06
40946;BME280;55635;50.264;11.918;2022-12-07T11:53:50;95259.56;;;7.27;74.35
40946;BME280;55635;50.264;11.918;2022-12-07T11:56:35;95246.41;;;6.57;74.67
40946;BME280;55635;50.264;11.918;2022-12-07T11:59:47;95243.16;;;6.39;75.55
40946;BME280;55635;50.264;11.918;2022-12-07T12:03:01;95241.81;;;6.51;76.38
40946;BME280;55635;50.264;11.918;2022-12-07T12:05:44;95233.50;;;6.15;77.42
40946;BME280;55635;50.264;11.918;2022-12-07T12:08:59;95228.06;;;6.09;77.72
40946;BME280;55635;50.264;11.918;2022-12-07T12:21:47;95226.44;;;7.55;74.94
40946;BME280;55635;50.264;11.918;2022-12-07T12:24:31;95207.31;;;7.76;74.39
40946;BME280;55635;50.264;11.918;2022-12-07T12:27:34;95216.91;;;7.91;72.73
40946;BME280;55635;50.264;11.918;2022-12-07T12:30:37;95221.69;;;7.28;72.12
40946;BME280;55635;50.264;11.918;2022-12-07T12:33:28;95216.59;;;6.95;74.23
40946;BME280;55635;50.264;11.918;2022-12-07T12:39:17;95216.44;;;6.97;75.26
40946;BME280;55635;50.264;11.918;2022-12-07T12:42:00;95212.75;;;6.75;75.16
40946;BME280;55635;50.264;11.918;2022-12-07T12:45:11;95217.88;;;6.69;75.17
40946;BME280;55635;50.264;11.918;2022-12-07T12:48:28;95226.75;;;6.68;76.15
40946;BME280;55635;50.264;11.918;2022-12-07T12:51:37;95208.78;;;6.24;77.10
40946;BME280;55635;50.264;11.918;2022-12-07T12:57:38;95203.09;;;5.80;78.58
40946;BME280;55635;50.264;11.918;2022-12-07T13:00:23;95214.28;;;5.98;78.73
40946;BME280;55635;50.264;11.918;2022-12-07T13:03:26;95222.69;;;6.02;78.97
40946;BME280;55635;50.264;11.918;2022-12-07T13:06:35;95220.88;;;5.86;79.12
40946;BME280;55635;50.264;11.918;2022-12-07T13:09:27;95208.72;;;5.85;78.74
40946;BME280;55635;50.264;11.918;2022-12-07T13:12:33;95208.84;;;5.76;79.78
40946;BME280;55635;50.264;11.918;2022-12-07T13:15:41;95208.69;;;5.69;81.53
40946;BME280;55635;50.264;11.918;2022-12-07T13:23:59;95201.72;;;6.25;80.66
40946;BME280;55635;50.264;11.918;2022-12-07T13:26:43;95188.09;;;6.13;79.14
40946;BME280;55635;50.264;11.918;2022-12-07T13:29:25;95196.50;;;6.17;78.43
40946;BME280;55635;50.264;11.918;2022-12-07T13:32:28;95194.34;;;6.12;79.32
40946;BME280;55635;50.264;11.918;2022-12-07T13:38:39;95187.81;;;5.84;80.10
40946;BME280;55635;50.264;11.918;2022-12-07T13:41:29;95192.28;;;5.59;81.33
40946;BME280;55635;50.264;11.918;2022-12-07T13:44:18;95193.06;;;5.60;80.62
40946;BME280;55635;50.264;11.918;2022-12-07T13:47:17;95197.88;;;5.56;80.64
40946;BME280;55635;50.264;11.918;2022-12-07T13:50:00;95186.53;;;5.56;80.89
40946;BME280;55635;50.264;11.918;2022-12-07T13:52:44;95192.94;;;5.61;80.54
40946;BME280;55635;50.264;11.918;2022-12-07T13:55:26;95195.72;;;5.68;79.83
40946;BME280;55635;50.264;11.918;2022-12-07T13:58:08;95180.91;;;5.67;79.15
40946;BME280;55635;50.264;11.918;2022-12-07T14:00:50;95187.97;;;5.66;79.73
40946;BME280;55635;50.264;11.918;2022-12-07T14:03:34;95187.19;;;5.49;79.41
40946;BME280;55635;50.264;11.918;2022-12-07T14:06:18;95197.53;;;5.43;79.06
40946;BME280;55635;50.264;11.918;2022-12-07T14:09:28;95183.88;;;5.23;79.73
40946;BME280;55635;50.264;11.918;2022-12-07T14:12:12;95196.22;;;5.31;80.40
40946;BME280;55635;50.264;11.918;2022-12-07T14:14:54;95186.19;;;5.10;81.17
40946;BME280;55635;50.264;11.918;2022-12-07T14:17:36;95180.34;;;4.74;82.20
40946;BME280;55635;50.264;11.918;2022-12-07T14:20:36;95177.75;;;4.82;83.03
40946;BME280;55635;50.264;11.918;2022-12-07T14:23:38;95186.78;;;4.96;82.89
40946;BME280;55635;50.264;11.918;2022-12-07T14:26:20;95188.59;;;4.79;83.48
40946;BME280;55635;50.264;11.918;2022-12-07T14:32:23;95182.59;;;4.53;84.94
40946;BME280;55635;50.264;11.918;2022-12-07T14:35:13;95185.06;;;4.63;84.31
40946;BME280;55635;50.264;11.918;2022-12-07T14:37:54;95187.56;;;4.64;84.28
40946;BME280;55635;50.264;11.918;2022-12-07T14:40:34;95189.38;;;4.72;84.36
40946;BME280;55635;50.264;11.918;2022-12-07T14:43:17;95189.88;;;4.67;84.41
40946;BME280;55635;50.264;11.918;2022-12-07T14:45:58;95188.34;;;4.65;84.32
40946;BME280;55635;50.264;11.918;2022-12-07T14:48:39;95194.53;;;4.39;85.68
40946;BME280;55635;50.264;11.918;2022-12-07T14:51:20;95184.56;;;4.51;85.23
40946;BME280;55635;50.264;11.918;2022-12-07T14:54:01;95191.81;;;4.65;84.69
40946;BME280;55635;50.264;11.918;2022-12-07T14:56:43;95188.22;;;4.66;84.43
40946;BME280;55635;50.264;11.918;2022-12-07T14:59:26;95185.91;;;4.63;85.00
40946;BME280;55635;50.264;11.918;2022-12-07T15:02:10;95195.44;;;4.64;84.73
40946;BME280;55635;50.264;11.918;2022-12-07T15:04:51;95183.63;;;4.68;84.38
40946;BME280;55635;50.264;11.918;2022-12-07T15:07:32;95165.16;;;4.36;85.58
40946;BME280;55635;50.264;11.918;2022-12-07T15:10:23;95184.81;;;4.32;86.72
40946;BME280;55635;50.264;11.918;2022-12-07T15:13:05;95172.38;;;4.42;85.77
40946;BME280;55635;50.264;11.918;2022-12-07T15:16:07;95185.88;;;4.55;85.95
40946;BME280;55635;50.264;11.918;2022-12-07T15:18:50;95184.88;;;4.56;85.46
40946;BME280;55635;50.264;11.918;2022-12-07T15:21:32;95186.72;;;4.64;85.72
40946;BME280;55635;50.264;11.918;2022-12-07T15:24:13;95182.63;;;4.61;85.16
40946;BME280;55635;50.264;11.918;2022-12-07T15:26:54;95184.09;;;4.64;84.88
40946;BME280;55635;50.264;11.918;2022-12-07T15:29:35;95189.50;;;4.54;84.85
40946;BME280;55635;50.264;11.918;2022-12-07T15:32:15;95180.63;;;4.55;84.74
40946;BME280;55635;50.264;11.918;2022-12-07T15:34:56;95184.88;;;4.48;84.97
40946;BME280;55635;50.264;11.918;2022-12-07T15:37:38;95186.53;;;4.57;85.29
40946;BME280;55635;50.264;11.918;2022-12-07T15:40:19;95178.19;;;4.62;85.11
40946;BME280;55635;50.264;11.918;2022-12-07T15:43:00;95174.25;;;4.66;84.63
40946;BME280;55635;50.264;11.918;2022-12-07T15:45:41;95175.38;;;4.55;84.62
40946;BME280;55635;50.264;11.918;2022-12-07T15:48:22;95167.81;;;4.10;86.52
40946;BME280;55635;50.264;11.918;2022-12-07T15:51:06;95166.53;;;4.14;86.63
40946;BME280;55635;50.264;11.918;2022-12-07T15:53:47;95177.00;;;4.06;86.76
40946;BME280;55635;50.264;11.918;2022-12-07T15:56:28;95182.34;;;4.30;85.58
40946;BME280;55635;50.264;11.918;2022-12-07T15:59:09;95177.13;;;4.38;85.32
40946;BME280;55635;50.264;11.918;2022-12-07T16:01:50;95174.38;;;4.48;84.96
40946;BME280;55635;50.264;11.918;2022-12-07T16:04:31;95169.59;;;4.44;84.43
40946;BME280;55635;50.264;11.918;2022-12-07T16:07:12;95165.34;;;4.43;84.06
40946;BME280;55635;50.264;11.918;2022-12-07T16:09:55;95156.44;;;4.35;84.10
40946;BME280;55635;50.264;11.918;2022-12-07T16:12:36;95172.53;;;4.40;84.13